createdAt,value
2022-12-27T00:00:04.378Z,1.60
2022-12-27T00:02:31.475Z,1.70
2022-12-27T00:04:59.416Z,1.60
2022-12-27T00:07:26.502Z,1.60
2022-12-27T00:09:54.275Z,1.50
2022-12-27T00:12:21.291Z,1.50
2022-12-27T00:14:48.333Z,1.60
2022-12-27T00:17:15.344Z,1.50
2022-12-27T00:19:42.405Z,1.50
2022-12-27T00:22:09.429Z,1.50
2022-12-27T00:24:36.476Z,1.50
2022-12-27T00:27:03.578Z,1.50
2022-12-27T00:29:30.835Z,1.50
2022-12-27T00:31:57.938Z,1.40
2022-12-27T00:34:24.987Z,1.40
2022-12-27T00:36:52.084Z,1.40
2022-12-27T00:39:19.248Z,1.50
2022-12-27T00:41:47.010Z,1.40
2022-12-27T00:44:14.087Z,1.50
2022-12-27T00:46:41.091Z,1.40
2022-12-27T00:49:08.191Z,1.40
2022-12-27T00:51:35.232Z,1.50
2022-12-27T00:54:03.011Z,1.50
2022-12-27T00:56:31.132Z,1.50
2022-12-27T00:59:01.012Z,1.50
2022-12-27T01:01:31.224Z,1.60
2022-12-27T01:03:59.172Z,1.60
2022-12-27T01:06:29.173Z,1.60
2022-12-27T01:08:57.103Z,1.60
2022-12-27T01:11:24.726Z,1.60
2022-12-27T01:13:51.784Z,1.60
2022-12-27T01:16:21.825Z,1.50
2022-12-27T01:18:49.375Z,1.50
2022-12-27T01:21:18.459Z,1.50
2022-12-27T01:23:46.086Z,1.50
2022-12-27T01:26:19.527Z,1.50
2022-12-27T01:28:47.921Z,1.50
2022-12-27T01:31:17.969Z,1.50
2022-12-27T01:33:45.092Z,1.50
2022-12-27T01:36:19.114Z,1.50
2022-12-27T01:38:48.276Z,1.50
2022-12-27T01:41:40.195Z,1.50
2022-12-27T01:44:34.817Z,1.50
2022-12-27T01:47:03.618Z,1.50
2022-12-27T01:49:30.787Z,1.60
2022-12-27T01:51:58.574Z,1.60
2022-12-27T01:54:25.976Z,1.60
2022-12-27T01:56:55.817Z,1.70
2022-12-27T01:59:23.119Z,1.70
2022-12-27T02:01:51.206Z,1.80
2022-12-27T02:04:24.345Z,1.80
2022-12-27T02:06:53.006Z,1.90
2022-12-27T02:09:19.967Z,1.90
2022-12-27T02:11:51.843Z,1.90
2022-12-27T02:14:36.125Z,2.00
2022-12-27T02:17:09.955Z,2.00
2022-12-27T02:19:50.066Z,2.00
2022-12-27T02:23:02.881Z,2.00
2022-12-27T02:25:32.970Z,2.10
2022-12-27T02:28:19.996Z,2.10
2022-12-27T02:30:49.987Z,2.10
2022-12-27T02:33:22.212Z,2.10
2022-12-27T02:35:55.393Z,2.00
2022-12-27T02:38:27.393Z,2.00
2022-12-27T02:41:15.411Z,2.00
2022-12-27T02:44:00.886Z,1.90
2022-12-27T02:47:02.079Z,1.90
2022-12-27T02:49:51.602Z,1.80
2022-12-27T02:52:55.968Z,1.70
2022-12-27T02:56:12.247Z,1.60
2022-12-27T02:58:54.030Z,1.50
2022-12-27T03:01:42.185Z,1.40
2022-12-27T03:04:33.679Z,1.40
2022-12-27T03:07:25.630Z,1.30
2022-12-27T03:10:48.086Z,1.30
2022-12-27T03:13:48.988Z,1.20
2022-12-27T03:16:31.784Z,1.20
2022-12-27T03:19:38.609Z,1.20
2022-12-27T03:22:26.664Z,1.30
2022-12-27T03:25:13.798Z,1.40
2022-12-27T03:27:44.283Z,1.50
2022-12-27T03:30:31.305Z,1.60
2022-12-27T03:33:13.967Z,1.60
2022-12-27T03:36:10.661Z,1.60
2022-12-27T03:38:48.023Z,1.60
2022-12-27T03:41:38.466Z,1.60
2022-12-27T03:44:24.816Z,1.60
2022-12-27T03:46:58.717Z,1.60
2022-12-27T03:50:04.762Z,1.60
2022-12-27T03:52:34.730Z,1.60
2022-12-27T03:55:02.547Z,1.70
2022-12-27T03:57:30.940Z,1.80
2022-12-27T03:59:57.999Z,1.80
2022-12-27T04:02:25.187Z,1.80
2022-12-27T04:04:52.362Z,1.80
2022-12-27T04:07:19.416Z,1.80
2022-12-27T04:10:05.327Z,1.80
2022-12-27T04:12:50.703Z,1.80
2022-12-27T04:15:36.204Z,1.90
2022-12-27T04:18:22.230Z,1.90
2022-12-27T04:21:07.617Z,1.80
2022-12-27T04:23:53.203Z,1.80
2022-12-27T04:26:38.675Z,1.80
2022-12-27T04:29:24.400Z,1.90
2022-12-27T04:32:09.804Z,1.80
2022-12-27T04:34:42.482Z,1.80
2022-12-27T04:37:12.231Z,1.80
2022-12-27T04:39:39.325Z,1.70
2022-12-27T04:42:25.198Z,1.70
2022-12-27T04:45:15.131Z,1.70
2022-12-27T04:48:01.047Z,1.70
2022-12-27T04:50:47.991Z,1.70
2022-12-27T04:53:39.868Z,1.60
2022-12-27T04:56:07.712Z,1.60
2022-12-27T04:58:35.076Z,1.70
2022-12-27T05:01:23.136Z,1.70
2022-12-27T05:03:52.527Z,1.70
2022-12-27T05:06:20.267Z,1.70
2022-12-27T05:09:05.940Z,1.80
2022-12-27T05:11:51.425Z,1.80
2022-12-27T05:14:18.439Z,1.80
2022-12-27T05:16:45.604Z,1.90
2022-12-27T05:19:14.790Z,1.90
2022-12-27T05:22:03.480Z,2.00
2022-12-27T05:24:50.042Z,2.00
2022-12-27T05:27:17.654Z,2.00
2022-12-27T05:29:44.664Z,2.10
2022-12-27T05:32:13.587Z,2.10
2022-12-27T05:34:41.594Z,2.20
2022-12-27T05:37:08.902Z,2.20
2022-12-27T05:39:36.070Z,2.20
2022-12-27T05:42:03.628Z,2.30
2022-12-27T05:44:30.651Z,2.30
2022-12-27T05:46:57.855Z,2.30
2022-12-27T05:49:24.890Z,2.40
2022-12-27T05:51:51.915Z,2.40
2022-12-27T05:54:18.993Z,2.40
2022-12-27T05:56:46.025Z,2.50
2022-12-27T05:59:13.083Z,2.50
2022-12-27T06:01:40.153Z,2.60
2022-12-27T06:04:07.173Z,2.60
2022-12-27T06:06:35.052Z,2.60
2022-12-27T06:09:02.123Z,2.60
2022-12-27T06:11:29.134Z,2.60
2022-12-27T06:13:56.302Z,2.60
2022-12-27T06:16:23.430Z,2.60
2022-12-27T06:18:50.750Z,2.60
2022-12-27T06:21:20.204Z,2.60
2022-12-27T06:23:47.717Z,2.60
2022-12-27T06:26:18.549Z,2.60
2022-12-27T06:28:45.628Z,2.60
2022-12-27T06:31:12.819Z,2.50
2022-12-27T06:33:39.963Z,2.50
2022-12-27T06:36:09.319Z,2.60
2022-12-27T06:38:36.574Z,2.60
2022-12-27T06:41:09.493Z,2.60
2022-12-27T06:43:36.707Z,2.60
2022-12-27T06:46:07.173Z,2.70
2022-12-27T06:48:34.322Z,2.70
2022-12-27T06:51:05.399Z,2.70
2022-12-27T06:53:32.490Z,2.70
2022-12-27T06:56:07.659Z,2.70
2022-12-27T06:58:35.135Z,2.80
2022-12-27T07:01:26.158Z,2.70
2022-12-27T07:03:58.772Z,2.70
2022-12-27T07:06:27.719Z,2.70
2022-12-27T07:08:56.876Z,2.70
2022-12-27T07:11:25.065Z,2.70
2022-12-27T07:13:54.686Z,2.80
2022-12-27T07:16:27.163Z,2.80
2022-12-27T07:18:59.348Z,2.80
2022-12-27T07:21:28.742Z,2.70
2022-12-27T07:23:56.764Z,2.70
2022-12-27T07:26:30.391Z,2.80
2022-12-27T07:29:00.315Z,2.80
2022-12-27T07:31:31.266Z,2.80
2022-12-27T07:34:00.325Z,2.80
2022-12-27T07:36:31.605Z,2.80
2022-12-27T07:38:59.274Z,2.80
2022-12-27T07:41:26.613Z,2.90
2022-12-27T07:43:53.756Z,2.90
2022-12-27T07:46:24.490Z,2.90
2022-12-27T07:48:57.835Z,2.90
2022-12-27T07:51:25.659Z,2.90
2022-12-27T07:53:53.433Z,2.90
2022-12-27T07:56:27.899Z,2.90
2022-12-27T07:58:56.718Z,2.90
2022-12-27T08:01:29.109Z,2.80
2022-12-27T08:03:56.748Z,2.90
2022-12-27T08:06:34.648Z,2.90
2022-12-27T08:09:05.714Z,2.80
2022-12-27T08:11:32.982Z,2.80
2022-12-27T08:14:00.124Z,2.80
2022-12-27T08:16:27.876Z,2.70
2022-12-27T08:18:55.171Z,2.70
2022-12-27T08:21:23.942Z,2.70
2022-12-27T08:23:52.190Z,2.80
2022-12-27T08:26:20.305Z,2.80
2022-12-27T08:28:47.511Z,2.80
2022-12-27T08:31:14.835Z,2.80
2022-12-27T08:33:42.332Z,2.90
2022-12-27T08:38:59.664Z,3.00
2022-12-27T08:41:26.851Z,3.00
2022-12-27T08:43:53.976Z,3.00
2022-12-27T08:46:21.216Z,3.00
2022-12-27T08:48:49.263Z,3.10
2022-12-27T08:51:24.800Z,3.10
2022-12-27T08:53:58.755Z,3.20
2022-12-27T08:56:26.325Z,3.20
2022-12-27T08:58:53.636Z,3.30
2022-12-27T09:01:20.909Z,3.20
2022-12-27T09:03:48.282Z,3.30
2022-12-27T09:06:21.410Z,3.30
2022-12-27T09:08:50.095Z,3.30
2022-12-27T09:11:35.480Z,3.40
2022-12-27T09:14:05.166Z,3.50
2022-12-27T09:16:34.377Z,3.60
2022-12-27T09:19:04.161Z,3.70
2022-12-27T09:21:34.175Z,3.90
2022-12-27T09:24:01.401Z,3.90
2022-12-27T09:26:30.874Z,4.00
2022-12-27T09:28:59.356Z,4.00
2022-12-27T09:31:27.131Z,4.00
2022-12-27T09:33:54.729Z,4.10
2022-12-27T09:36:25.241Z,4.10
2022-12-27T09:38:53.928Z,4.10
2022-12-27T09:44:42.208Z,4.10
2022-12-27T09:47:27.557Z,4.10
2022-12-27T09:49:57.283Z,4.10
2022-12-27T09:53:01.511Z,4.20
2022-12-27T09:55:46.133Z,4.30
2022-12-27T09:58:22.387Z,4.50
2022-12-27T10:00:52.605Z,4.60
2022-12-27T10:03:25.546Z,4.70
2022-12-27T10:06:15.773Z,4.80
2022-12-27T10:09:21.602Z,4.80
2022-12-27T10:11:51.512Z,4.80
2022-12-27T10:14:34.163Z,4.80
2022-12-27T10:17:25.267Z,4.70
2022-12-27T10:20:29.455Z,4.80
2022-12-27T10:23:06.406Z,4.90
2022-12-27T10:25:35.744Z,5.00
2022-12-27T10:28:14.595Z,5.10
2022-12-27T10:30:44.721Z,5.30
2022-12-27T10:33:20.699Z,5.40
2022-12-27T10:35:48.984Z,5.40
2022-12-27T10:38:16.091Z,5.50
2022-12-27T10:41:18.849Z,5.60
2022-12-27T10:43:50.659Z,5.70
2022-12-27T10:46:28.957Z,5.80
2022-12-27T10:49:21.514Z,5.90
2022-12-27T10:51:50.888Z,6.00
2022-12-27T10:54:30.019Z,6.10
2022-12-27T10:57:15.714Z,6.10
2022-12-27T10:59:42.924Z,6.10
2022-12-27T11:02:18.225Z,6.10
2022-12-27T11:04:58.332Z,6.10
2022-12-27T11:07:33.221Z,6.10
2022-12-27T11:10:21.957Z,6.10
2022-12-27T11:12:58.057Z,6.00
2022-12-27T11:15:29.373Z,6.00
2022-12-27T11:18:02.677Z,6.00
2022-12-27T11:20:37.925Z,6.00
2022-12-27T11:23:16.757Z,6.10
2022-12-27T11:25:54.537Z,6.10
2022-12-27T11:28:44.433Z,6.10
2022-12-27T11:31:15.202Z,6.10
2022-12-27T11:33:56.491Z,6.20
2022-12-27T11:36:37.437Z,6.20
2022-12-27T11:39:05.623Z,6.20
2022-12-27T11:41:45.556Z,6.20
2022-12-27T11:44:19.708Z,6.20
2022-12-27T11:46:58.835Z,6.20
2022-12-27T11:49:48.352Z,6.20
2022-12-27T11:52:40.276Z,6.10
2022-12-27T11:55:35.259Z,6.20
2022-12-27T11:58:14.348Z,6.20
2022-12-27T12:01:03.574Z,6.20
2022-12-27T12:03:59.603Z,6.20
2022-12-27T12:06:52.458Z,6.20
2022-12-27T12:09:28.427Z,6.30
2022-12-27T12:12:05.013Z,6.30
2022-12-27T12:14:47.325Z,6.20
2022-12-27T12:17:36.545Z,6.20
2022-12-27T12:20:13.971Z,6.20
2022-12-27T12:23:00.410Z,6.20
2022-12-27T12:25:42.965Z,6.20
2022-12-27T12:28:56.426Z,6.10
2022-12-27T12:31:39.531Z,6.10
2022-12-27T12:34:27.489Z,6.10
2022-12-27T12:37:32.522Z,6.20
2022-12-27T12:40:08.345Z,6.20
2022-12-27T12:43:15.744Z,6.30
2022-12-27T12:45:51.720Z,6.40
2022-12-27T12:48:41.930Z,6.50
2022-12-27T12:51:43.158Z,6.50
2022-12-27T12:54:28.989Z,6.50
2022-12-27T12:57:05.710Z,6.50
2022-12-27T12:59:39.226Z,6.50
2022-12-27T13:02:36.915Z,6.50
2022-12-27T13:05:33.386Z,6.50
2022-12-27T13:08:21.949Z,6.60
2022-12-27T13:10:58.223Z,6.70
2022-12-27T13:13:49.708Z,6.70
2022-12-27T13:16:41.254Z,6.70
2022-12-27T13:19:27.970Z,6.70
2022-12-27T13:22:34.654Z,6.70
2022-12-27T13:25:20.811Z,6.70
2022-12-27T13:27:50.751Z,6.70
2022-12-27T13:30:20.895Z,6.70
2022-12-27T13:32:50.748Z,6.70
2022-12-27T13:35:34.937Z,6.70
2022-12-27T13:38:19.984Z,6.70
2022-12-27T13:40:59.911Z,6.70
2022-12-27T13:43:46.333Z,6.70
2022-12-27T13:47:10.066Z,6.70
2022-12-27T13:49:49.162Z,6.60
2022-12-27T13:52:22.963Z,6.60
2022-12-27T13:55:18.428Z,6.50
2022-12-27T13:58:21.291Z,6.50
2022-12-27T14:01:30.961Z,6.50
2022-12-27T14:04:26.990Z,6.50
2022-12-27T14:07:06.049Z,6.50
2022-12-27T14:11:01.149Z,6.60
2022-12-27T14:13:44.895Z,6.60
2022-12-27T14:16:55.947Z,6.70
2022-12-27T14:20:00.058Z,6.90
2022-12-27T14:22:54.417Z,7.10
2022-12-27T14:25:44.186Z,7.00
2022-12-27T14:29:00.225Z,7.10
2022-12-27T14:32:05.471Z,7.30
2022-12-27T14:34:38.524Z,7.20
2022-12-27T14:37:42.052Z,7.30
2022-12-27T14:40:48.988Z,7.30
2022-12-27T14:43:35.632Z,7.30
2022-12-27T14:46:20.003Z,7.20
2022-12-27T14:49:00.045Z,7.10
2022-12-27T14:52:12.848Z,7.00
2022-12-27T14:55:13.720Z,6.90
2022-12-27T14:57:58.617Z,6.70
2022-12-27T15:00:31.798Z,6.70
2022-12-27T15:03:41.679Z,6.60
2022-12-27T15:06:18.767Z,6.50
2022-12-27T15:09:31.173Z,6.50
2022-12-27T15:12:29.782Z,6.40
2022-12-27T15:15:28.200Z,6.40
2022-12-27T15:18:26.562Z,6.30
2022-12-27T15:21:09.231Z,6.30
2022-12-27T15:24:15.732Z,6.30
2022-12-27T15:26:47.076Z,6.20
2022-12-27T15:29:46.894Z,6.20
2022-12-27T15:32:35.862Z,6.10
2022-12-27T15:35:33.876Z,6.10
2022-12-27T15:38:12.599Z,6.00
2022-12-27T15:41:08.324Z,6.00
2022-12-27T15:44:02.492Z,5.90
2022-12-27T15:47:08.444Z,5.80
2022-12-27T15:50:07.836Z,5.80
2022-12-27T15:53:03.498Z,5.80
2022-12-27T15:55:48.840Z,5.70
2022-12-27T15:58:27.874Z,5.70
2022-12-27T16:01:25.963Z,5.60
2022-12-27T16:03:54.726Z,5.60
2022-12-27T16:06:34.191Z,5.60
2022-12-27T16:09:37.235Z,5.50
2022-12-27T16:12:11.483Z,5.50
2022-12-27T16:14:40.084Z,5.40
2022-12-27T16:17:40.411Z,5.40
2022-12-27T16:20:23.845Z,5.30
2022-12-27T16:22:56.020Z,5.30
2022-12-27T16:25:42.105Z,5.30
2022-12-27T16:28:23.945Z,5.20
2022-12-27T16:30:59.374Z,5.20
2022-12-27T16:33:31.209Z,5.20
2022-12-27T16:36:18.716Z,5.20
2022-12-27T16:39:01.109Z,5.10
2022-12-27T16:41:29.434Z,5.00
2022-12-27T16:44:03.648Z,5.00
2022-12-27T16:46:49.405Z,4.90
2022-12-27T16:49:54.388Z,4.90
2022-12-27T16:52:35.013Z,4.90
2022-12-27T16:55:44.251Z,4.80
2022-12-27T16:58:36.193Z,4.80
2022-12-27T17:01:52.756Z,4.70
2022-12-27T17:04:53.047Z,4.60
2022-12-27T17:07:54.880Z,4.60
2022-12-27T17:10:29.272Z,4.60
2022-12-27T17:13:09.074Z,4.50
2022-12-27T17:15:55.760Z,4.50
2022-12-27T17:18:47.651Z,4.50
2022-12-27T17:21:35.828Z,4.40
2022-12-27T17:24:10.047Z,4.40
2022-12-27T17:27:14.813Z,4.30
2022-12-27T17:30:32.044Z,4.30
2022-12-27T17:33:11.382Z,4.20
2022-12-27T17:35:51.189Z,4.20
2022-12-27T17:38:19.197Z,4.20
2022-12-27T17:40:49.205Z,4.10
2022-12-27T17:43:42.006Z,4.10
2022-12-27T17:46:21.773Z,4.10
2022-12-27T17:48:52.041Z,4.00
2022-12-27T17:51:29.568Z,4.00
2022-12-27T17:54:15.723Z,4.00
2022-12-27T17:57:15.519Z,4.00
2022-12-27T17:59:47.259Z,3.90
2022-12-27T18:02:16.912Z,3.90
2022-12-27T18:04:50.550Z,3.90
2022-12-27T18:07:27.897Z,3.90
2022-12-27T18:10:03.970Z,3.90
2022-12-27T18:12:37.592Z,3.80
2022-12-27T18:15:15.224Z,3.70
2022-12-27T18:17:58.475Z,3.70
2022-12-27T18:20:28.770Z,3.70
2022-12-27T18:23:01.997Z,3.70
2022-12-27T18:25:40.416Z,3.60
2022-12-27T18:28:18.427Z,3.60
2022-12-27T18:30:50.493Z,3.60
2022-12-27T18:33:18.490Z,3.50
2022-12-27T18:35:50.667Z,3.50
2022-12-27T18:38:27.175Z,3.50
2022-12-27T18:41:06.113Z,3.50
2022-12-27T18:43:34.807Z,3.50
2022-12-27T18:46:03.816Z,3.50
2022-12-27T18:48:35.298Z,3.50
2022-12-27T18:51:03.314Z,3.50
2022-12-27T18:53:35.926Z,3.50
2022-12-27T18:56:14.732Z,3.40
2022-12-27T18:58:58.676Z,3.40
2022-12-27T19:01:36.899Z,3.40
2022-12-27T19:04:19.085Z,3.40
2022-12-27T19:07:09.205Z,3.40
2022-12-27T19:09:48.981Z,3.40
2022-12-27T19:12:19.180Z,3.30
2022-12-27T19:14:46.940Z,3.30
2022-12-27T19:17:25.898Z,3.30
2022-12-27T19:19:56.400Z,3.20
2022-12-27T19:22:34.546Z,3.30
2022-12-27T19:25:05.278Z,3.30
2022-12-27T19:27:32.347Z,3.20
2022-12-27T19:30:00.036Z,3.20
2022-12-27T19:32:34.085Z,3.20
2022-12-27T19:35:03.284Z,3.10
2022-12-27T19:37:33.684Z,3.10
2022-12-27T19:40:01.149Z,3.10
2022-12-27T19:42:33.435Z,3.10
2022-12-27T19:45:00.429Z,3.00
2022-12-27T19:47:30.296Z,3.00
2022-12-27T19:49:57.467Z,3.00
2022-12-27T19:52:27.418Z,2.90
2022-12-27T19:55:04.714Z,2.90
2022-12-27T19:57:34.231Z,2.80
2022-12-27T20:00:06.794Z,2.70
2022-12-27T20:02:35.855Z,2.70
2022-12-27T20:05:03.064Z,2.70
2022-12-27T20:07:30.695Z,2.70
2022-12-27T20:09:57.898Z,2.60
2022-12-27T20:12:26.236Z,2.70
2022-12-27T20:14:55.475Z,2.60
2022-12-27T20:17:24.999Z,2.70
2022-12-27T20:19:52.101Z,2.70
2022-12-27T20:22:19.168Z,2.70
2022-12-27T20:24:47.333Z,2.70
2022-12-27T20:27:14.384Z,2.70
2022-12-27T20:29:41.428Z,2.70
2022-12-27T20:32:10.181Z,2.60
2022-12-27T20:34:37.288Z,2.60
2022-12-27T20:37:05.490Z,2.60
2022-12-27T20:39:32.537Z,2.60
2022-12-27T20:42:01.467Z,2.50
2022-12-27T20:44:28.668Z,2.50
2022-12-27T20:46:55.747Z,2.40
2022-12-27T20:49:23.259Z,2.40
2022-12-27T20:51:50.362Z,2.40
2022-12-27T20:54:17.606Z,2.40
2022-12-27T20:56:44.737Z,2.30
2022-12-27T20:59:11.776Z,2.40
2022-12-27T21:01:39.095Z,2.40
2022-12-27T21:04:06.260Z,2.40
2022-12-27T21:06:33.339Z,2.40
2022-12-27T21:09:00.373Z,2.40
2022-12-27T21:11:31.560Z,2.40
2022-12-27T21:14:04.984Z,2.40
2022-12-27T21:16:34.629Z,2.40
2022-12-27T21:19:05.430Z,2.40
2022-12-27T21:21:35.086Z,2.40
2022-12-27T21:24:03.090Z,2.50
2022-12-27T21:26:32.715Z,2.50
2022-12-27T21:29:00.628Z,2.50
2022-12-27T21:31:28.115Z,2.50
2022-12-27T21:33:55.651Z,2.50
2022-12-27T21:36:25.043Z,2.50
2022-12-27T21:38:52.751Z,2.40
2022-12-27T21:41:25.311Z,2.40
2022-12-27T21:43:53.611Z,2.40
2022-12-27T21:46:22.147Z,2.40
2022-12-27T21:48:59.815Z,2.40
2022-12-27T21:51:27.746Z,2.50
2022-12-27T21:53:56.032Z,2.50
2022-12-27T21:56:24.401Z,2.60
2022-12-27T21:58:51.882Z,2.50
2022-12-27T22:01:25.917Z,2.60
2022-12-27T22:03:54.548Z,2.60
2022-12-27T22:06:24.516Z,2.60
2022-12-27T22:08:57.428Z,2.60
2022-12-27T22:11:25.205Z,2.60
2022-12-27T22:13:52.557Z,2.60
2022-12-27T22:16:24.024Z,2.60
2022-12-27T22:18:51.623Z,2.60
2022-12-27T22:21:21.706Z,2.60
2022-12-27T22:23:51.335Z,2.60
2022-12-27T22:26:27.126Z,2.50
2022-12-27T22:28:54.641Z,2.50
2022-12-27T22:31:24.260Z,2.50
2022-12-27T22:33:51.917Z,2.50
2022-12-27T22:36:24.150Z,2.50
2022-12-27T22:38:53.742Z,2.50
2022-12-27T22:41:29.617Z,2.40
2022-12-27T22:44:02.158Z,2.40
2022-12-27T22:46:51.217Z,2.60
2022-12-27T22:49:18.119Z,2.60
2022-12-27T22:51:45.475Z,2.70
2022-12-27T22:54:12.576Z,2.70
2022-12-27T22:56:42.916Z,2.80
2022-12-27T22:59:12.553Z,2.80
2022-12-27T23:01:40.854Z,2.90
2022-12-27T23:04:10.744Z,2.90
2022-12-27T23:06:40.214Z,2.90
2022-12-27T23:09:08.109Z,3.00
2022-12-27T23:11:37.991Z,3.00
2022-12-27T23:14:11.452Z,2.90
2022-12-27T23:16:46.768Z,2.80
2022-12-27T23:19:15.941Z,2.80
2022-12-27T23:21:43.236Z,2.80
2022-12-27T23:24:11.059Z,2.70
2022-12-27T23:26:38.742Z,2.70
2022-12-27T23:29:06.241Z,2.60
2022-12-27T23:31:33.831Z,2.70
2022-12-27T23:34:00.953Z,2.60
2022-12-27T23:36:27.971Z,2.60
2022-12-27T23:38:55.725Z,2.60
2022-12-27T23:41:25.513Z,2.60
2022-12-27T23:43:55.481Z,2.60
2022-12-27T23:46:27.634Z,2.60
2022-12-27T23:48:57.135Z,2.60
2022-12-27T23:51:24.908Z,2.60
2022-12-27T23:53:52.198Z,2.60
2022-12-27T23:56:23.379Z,2.60
2022-12-27T23:58:53.863Z,2.60
